createdAt,value
2023-01-30T00:05:11.892Z,0
2023-01-30T00:11:34.818Z,0
2023-01-30T00:17:54.759Z,0
2023-01-30T00:24:17.870Z,0
2023-01-30T00:30:37.886Z,0
2023-01-30T00:37:07.992Z,0
2023-01-30T00:43:20.740Z,0
2023-01-30T00:49:43.917Z,0
2023-01-30T00:56:03.740Z,0
2023-01-30T01:02:26.857Z,0
2023-01-30T01:08:46.767Z,0
2023-01-30T01:15:09.883Z,0
2023-01-30T01:21:29.868Z,0
2023-01-30T01:27:52.795Z,0
2023-01-30T01:34:12.759Z,0
2023-01-30T01:40:35.814Z,0
2023-01-30T01:46:55.767Z,0
2023-01-30T01:53:18.842Z,0
2023-01-30T01:59:38.805Z,0
2023-01-30T02:06:01.901Z,0
2023-01-30T02:12:21.910Z,0
2023-01-30T02:18:44.785Z,0
2023-01-30T02:25:04.789Z,0
2023-01-30T02:31:27.942Z,0
2023-01-30T02:37:47.759Z,0
2023-01-30T02:44:10.818Z,0
2023-01-30T02:50:30.805Z,0
2023-01-30T02:56:53.894Z,0
2023-01-30T03:03:13.842Z,0
2023-01-30T03:09:36.819Z,0
2023-01-30T03:15:56.743Z,0
2023-01-30T03:22:19.808Z,0
2023-01-30T03:28:39.779Z,0
2023-01-30T03:35:02.855Z,0
2023-01-30T03:41:22.830Z,0
2023-01-30T03:47:45.832Z,0
2023-01-30T03:54:05.809Z,0
2023-01-30T04:00:28.784Z,0
2023-01-30T04:06:48.871Z,0
2023-01-30T04:22:22.703Z,0
2023-01-30T04:28:42.773Z,0
2023-01-30T04:35:05.873Z,0
2023-01-30T04:41:25.758Z,0
2023-01-30T04:47:48.839Z,0
2023-01-30T04:54:08.769Z,0
2023-01-30T05:00:31.936Z,0
2023-01-30T05:06:51.829Z,0
2023-01-30T05:13:14.775Z,0
2023-01-30T05:19:34.905Z,0
2023-01-30T05:25:58.021Z,0
2023-01-30T05:32:17.774Z,0
2023-01-30T05:38:40.771Z,0
2023-01-30T05:45:00.762Z,0
2023-01-30T05:51:23.869Z,0
2023-01-30T05:57:43.817Z,0
2023-01-30T06:04:06.993Z,0
2023-01-30T06:10:26.797Z,0
2023-01-30T06:16:49.880Z,0
2023-01-30T06:23:09.877Z,0
2023-01-30T06:29:32.828Z,0
2023-01-30T06:35:52.896Z,0
2023-01-30T06:42:15.819Z,0
2023-01-30T06:48:35.776Z,0
2023-01-30T06:54:58.820Z,0
2023-01-30T07:01:18.797Z,0
2023-01-30T07:07:41.842Z,0
2023-01-30T07:14:01.859Z,0
2023-01-30T07:20:24.765Z,0
2023-01-30T07:26:44.796Z,0
2023-01-30T07:33:07.815Z,0
2023-01-30T07:39:27.807Z,0
2023-01-30T07:45:50.780Z,0
2023-01-30T07:52:10.852Z,0
2023-01-30T07:58:33.841Z,0
2023-01-30T08:04:53.841Z,0
2023-01-30T08:11:16.921Z,5.62
2023-01-30T08:17:36.745Z,0
2023-01-30T08:24:01.185Z,0
2023-01-30T08:30:20.295Z,0
2023-01-30T08:36:42.859Z,11.25
2023-01-30T08:43:02.800Z,11.25
2023-01-30T08:49:25.890Z,16.88
2023-01-30T08:55:45.817Z,11.25
2023-01-30T09:02:08.842Z,11.25
2023-01-30T09:08:28.847Z,28.12
2023-01-30T09:32:28.672Z,22.5
2023-01-30T09:38:51.761Z,39.38
2023-01-30T09:45:11.835Z,45
2023-01-30T09:51:34.818Z,45
2023-01-30T09:57:54.807Z,50.62
2023-01-30T10:04:17.873Z,56.25
2023-01-30T10:10:37.810Z,50.62
2023-01-30T10:17:00.781Z,39.38
2023-01-30T10:23:20.767Z,45
2023-01-30T10:29:43.870Z,33.75
2023-01-30T10:36:03.838Z,39.38
2023-01-30T10:42:27.018Z,39.38
2023-01-30T10:48:47.176Z,50.62
2023-01-30T10:55:09.758Z,33.75
2023-01-30T11:01:29.935Z,39.38
2023-01-30T11:07:52.804Z,39.38
2023-01-30T11:14:12.810Z,39.38
2023-01-30T11:20:35.823Z,50.62
2023-01-30T11:26:55.904Z,56.25
2023-01-30T11:33:18.884Z,22.5
2023-01-30T11:39:38.802Z,33.75
2023-01-30T11:46:01.935Z,16.88
2023-01-30T11:52:21.953Z,16.88
2023-01-30T11:58:44.759Z,16.88
2023-01-30T12:05:04.853Z,16.88
2023-01-30T12:11:27.779Z,39.38
2023-01-30T12:17:47.784Z,22.5
2023-01-30T12:24:11.809Z,33.75
2023-01-30T12:30:31.778Z,16.88
2023-01-30T12:36:52.875Z,28.12
2023-01-30T12:43:12.806Z,22.5
2023-01-30T12:49:36.070Z,16.88
2023-01-30T12:55:55.740Z,16.88
2023-01-30T13:02:18.851Z,22.5
2023-01-30T13:08:38.903Z,33.75
2023-01-30T13:15:01.802Z,22.5
2023-01-30T13:21:21.880Z,45
2023-01-30T13:27:44.795Z,56.25
2023-01-30T13:34:04.779Z,67.5
2023-01-30T13:40:27.888Z,28.12
2023-01-30T13:46:47.871Z,22.5
2023-01-30T13:53:10.791Z,22.5
2023-01-30T13:59:30.912Z,22.5
2023-01-30T14:05:53.790Z,16.88
2023-01-30T14:12:13.899Z,28.12
2023-01-30T14:35:20.153Z,33.75
2023-01-30T14:41:42.738Z,28.12
2023-01-30T14:48:02.810Z,28.12
2023-01-30T14:54:33.201Z,22.5
2023-01-30T15:00:45.937Z,22.5
2023-01-30T15:07:08.782Z,33.75
2023-01-30T15:13:28.803Z,33.75
2023-01-30T15:19:51.866Z,22.5
2023-01-30T15:26:11.829Z,16.88
2023-01-30T15:32:34.979Z,11.25
2023-01-30T15:38:54.796Z,5.62
2023-01-30T15:45:17.779Z,0
2023-01-30T15:51:37.904Z,0
2023-01-30T15:58:00.789Z,0
2023-01-30T16:04:20.849Z,0
2023-01-30T16:10:43.779Z,0
2023-01-30T16:17:03.794Z,0
2023-01-30T16:23:26.802Z,0
2023-01-30T16:29:47.061Z,0
2023-01-30T16:36:09.827Z,0
2023-01-30T16:42:29.802Z,0
2023-01-30T16:48:52.861Z,0
2023-01-30T16:55:12.768Z,0
2023-01-30T17:01:35.967Z,0
2023-01-30T17:07:55.845Z,0
2023-01-30T17:14:18.792Z,0
2023-01-30T17:20:38.782Z,0
2023-01-30T17:27:01.860Z,0
2023-01-30T17:33:21.826Z,0
2023-01-30T17:39:44.847Z,0
2023-01-30T17:46:04.889Z,0
2023-01-30T17:52:27.823Z,0
2023-01-30T17:58:47.791Z,0
2023-01-30T18:05:10.806Z,0
2023-01-30T18:11:30.820Z,0
2023-01-30T18:17:53.781Z,0
2023-01-30T18:24:13.832Z,0
2023-01-30T18:30:36.836Z,0
2023-01-30T18:36:56.732Z,0
2023-01-30T18:43:21.371Z,0
2023-01-30T18:49:39.793Z,0
2023-01-30T18:56:02.759Z,0
2023-01-30T19:02:22.909Z,0
2023-01-30T19:08:45.777Z,0
2023-01-30T19:15:05.784Z,0
2023-01-30T19:21:28.878Z,0
2023-01-30T19:38:41.674Z,0
2023-01-30T19:45:04.738Z,0
2023-01-30T19:51:24.754Z,0
2023-01-30T19:57:47.802Z,0
2023-01-30T20:04:07.808Z,0
2023-01-30T20:10:30.826Z,0
2023-01-30T20:16:50.784Z,0
2023-01-30T20:23:13.765Z,0
2023-01-30T20:29:33.797Z,0
2023-01-30T20:35:56.812Z,0
2023-01-30T20:42:16.953Z,0
2023-01-30T20:48:39.810Z,0
2023-01-30T20:54:59.814Z,0
2023-01-30T21:01:22.869Z,0
2023-01-30T21:07:42.777Z,0
2023-01-30T21:14:05.867Z,0
2023-01-30T21:20:25.793Z,0
2023-01-30T21:26:48.843Z,0
2023-01-30T21:33:08.840Z,0
2023-01-30T21:39:31.778Z,0
2023-01-30T21:45:51.841Z,0
2023-01-30T21:52:14.820Z,0
2023-01-30T21:58:34.777Z,0
2023-01-30T22:04:57.964Z,0
2023-01-30T22:11:17.770Z,0
2023-01-30T22:17:40.840Z,0
2023-01-30T22:24:00.953Z,0
2023-01-30T22:30:23.813Z,0
2023-01-30T22:36:43.803Z,0
2023-01-30T22:43:06.760Z,0
2023-01-30T22:49:26.907Z,0
2023-01-30T22:55:49.815Z,0
2023-01-30T23:20:03.764Z,0
2023-01-30T23:26:23.767Z,0
2023-01-30T23:32:46.767Z,0
2023-01-30T23:39:06.885Z,0
2023-01-30T23:45:29.871Z,0
2023-01-30T23:51:49.786Z,0
2023-01-30T23:58:12.786Z,0
